sensor_id;sensor_type;location;lat;lon;timestamp;pressure;altitude;pressure_sealevel;temperature;humidity
70521;BME280;58442;52.716;23.560;2024-01-30T00:00:04;103371.47;;;0.28;76.20
70521;BME280;58442;52.716;23.560;2024-01-30T00:00:16;103371.47;;;0.28;76.20
70521;BME280;58442;52.716;23.560;2024-01-30T00:00:32;103376.60;;;0.30;76.21
70521;BME280;58442;52.716;23.560;2024-01-30T00:00:48;103366.13;;;0.28;76.22
70521;BME280;58442;52.716;23.560;2024-01-30T00:01:04;103371.47;;;0.28;76.23
70521;BME280;58442;52.716;23.560;2024-01-30T00:01:20;103380.10;;;0.30;76.25
70521;BME280;58442;52.716;23.560;2024-01-30T00:01:33;103371.47;;;0.28;76.25
70521;BME280;58442;52.716;23.560;2024-01-30T00:01:44;103372.29;;;0.29;76.28
70521;BME280;58442;52.716;23.560;2024-01-30T00:01:56;103373.11;;;0.29;76.28
70521;BME280;58442;52.716;23.560;2024-01-30T00:02:07;103364.27;;;0.29;76.28
70521;BME280;58442;52.716;23.560;2024-01-30T00:02:18;103370.45;;;0.29;76.29
70521;BME280;58442;52.716;23.560;2024-01-30T00:02:30;103367.76;;;0.29;76.28
70521;BME280;58442;52.716;23.560;2024-01-30T00:02:41;103374.74;;;0.30;76.28
70521;BME280;58442;52.716;23.560;2024-01-30T00:02:54;103372.29;;;0.29;76.29
70521;BME280;58442;52.716;23.560;2024-01-30T00:03:05;103366.13;;;0.28;76.29
70521;BME280;58442;52.716;23.560;2024-01-30T00:03:16;103366.95;;;0.29;76.30
70521;BME280;58442;52.716;23.560;2024-01-30T00:03:27;103372.07;;;0.30;76.31
70521;BME280;58442;52.716;23.560;2024-01-30T00:03:40;103370.23;;;0.31;76.30
70521;BME280;58442;52.716;23.560;2024-01-30T00:03:51;103377.41;;;0.30;76.31
70521;BME280;58442;52.716;23.560;2024-01-30T00:04:03;103366.13;;;0.28;76.32
70521;BME280;58442;52.716;23.560;2024-01-30T00:04:14;103369.40;;;0.30;76.32
70521;BME280;58442;52.716;23.560;2024-01-30T00:04:27;103372.07;;;0.30;76.32
70521;BME280;58442;52.716;23.560;2024-01-30T00:04:38;103376.38;;;0.31;76.31
70521;BME280;58442;52.716;23.560;2024-01-30T00:04:49;103375.57;;;0.31;76.32
70521;BME280;58442;52.716;23.560;2024-01-30T00:05:00;103376.38;;;0.31;76.34
70521;BME280;58442;52.716;23.560;2024-01-30T00:05:12;103375.57;;;0.31;76.32
70521;BME280;58442;52.716;23.560;2024-01-30T00:05:23;103370.23;;;0.31;76.35
70521;BME280;58442;52.716;23.560;2024-01-30T00:05:34;103371.03;;;0.31;76.35
70521;BME280;58442;52.716;23.560;2024-01-30T00:05:45;103368.36;;;0.31;76.35
70521;BME280;58442;52.716;23.560;2024-01-30T00:05:56;103372.89;;;0.31;76.35
70521;BME280;58442;52.716;23.560;2024-01-30T00:06:08;103365.69;;;0.31;76.36
70521;BME280;58442;52.716;23.560;2024-01-30T00:06:19;103365.69;;;0.31;76.35
70521;BME280;58442;52.716;23.560;2024-01-30T00:06:34;103368.36;;;0.31;76.37
70521;BME280;58442;52.716;23.560;2024-01-30T00:06:45;103366.73;;;0.30;76.36
70521;BME280;58442;52.716;23.560;2024-01-30T00:06:57;103373.72;;;0.31;76.37
70521;BME280;58442;52.716;23.560;2024-01-30T00:07:08;103358.48;;;0.32;76.37
70521;BME280;58442;52.716;23.560;2024-01-30T00:07:19;103364.65;;;0.32;76.37
70521;BME280;58442;52.716;23.560;2024-01-30T00:07:30;103365.69;;;0.31;76.38
70521;BME280;58442;52.716;23.560;2024-01-30T00:07:41;103371.63;;;0.33;76.37
70521;BME280;58442;52.716;23.560;2024-01-30T00:07:52;103368.14;;;0.33;76.36
70521;BME280;58442;52.716;23.560;2024-01-30T00:08:04;103369.99;;;0.32;76.37
70521;BME280;58442;52.716;23.560;2024-01-30T00:08:15;103369.99;;;0.32;76.37
70521;BME280;58442;52.716;23.560;2024-01-30T00:08:26;103368.14;;;0.33;76.36
70521;BME280;58442;52.716;23.560;2024-01-30T00:08:37;103368.96;;;0.33;76.36
70521;BME280;58442;52.716;23.560;2024-01-30T00:08:48;103360.12;;;0.33;76.36
70521;BME280;58442;52.716;23.560;2024-01-30T00:08:59;103359.07;;;0.34;76.36
70521;BME280;58442;52.716;23.560;2024-01-30T00:09:11;103362.57;;;0.34;76.36
70521;BME280;58442;52.716;23.560;2024-01-30T00:09:22;103367.12;;;0.34;76.35
70521;BME280;58442;52.716;23.560;2024-01-30T00:09:33;103359.07;;;0.34;76.36
70521;BME280;58442;52.716;23.560;2024-01-30T00:09:46;103362.57;;;0.34;76.36
70521;BME280;58442;52.716;23.560;2024-01-30T00:09:59;103359.90;;;0.34;76.36
70521;BME280;58442;52.716;23.560;2024-01-30T00:10:11;103365.25;;;0.34;76.36
70521;BME280;58442;52.716;23.560;2024-01-30T00:10:22;103356.21;;;0.35;76.37
70521;BME280;58442;52.716;23.560;2024-01-30T00:10:33;103363.43;;;0.35;76.36
70521;BME280;58442;52.716;23.560;2024-01-30T00:10:44;103360.74;;;0.35;76.36
70521;BME280;58442;52.716;23.560;2024-01-30T00:10:55;103356.21;;;0.35;76.37
70521;BME280;58442;52.716;23.560;2024-01-30T00:11:07;103356.21;;;0.35;76.36
70521;BME280;58442;52.716;23.560;2024-01-30T00:11:18;103364.23;;;0.35;76.36
70521;BME280;58442;52.716;23.560;2024-01-30T00:11:29;103362.38;;;0.36;76.36
70521;BME280;58442;52.716;23.560;2024-01-30T00:11:41;103360.52;;;0.36;76.36
70521;BME280;58442;52.716;23.560;2024-01-30T00:11:52;103361.57;;;0.35;76.36
70521;BME280;58442;52.716;23.560;2024-01-30T00:12:03;103363.21;;;0.36;76.35
70521;BME280;58442;52.716;23.560;2024-01-30T00:12:14;103357.03;;;0.36;76.36
70521;BME280;58442;52.716;23.560;2024-01-30T00:12:26;103361.34;;;0.37;76.33
70521;BME280;58442;52.716;23.560;2024-01-30T00:12:37;103364.02;;;0.37;76.35
70521;BME280;58442;52.716;23.560;2024-01-30T00:12:48;103359.48;;;0.37;76.34
70521;BME280;58442;52.716;23.560;2024-01-30T00:12:59;103359.48;;;0.37;76.31
70521;BME280;58442;52.716;23.560;2024-01-30T00:13:10;103357.63;;;0.38;76.32
70521;BME280;58442;52.716;23.560;2024-01-30T00:13:21;103362.98;;;0.38;76.30
70521;BME280;58442;52.716;23.560;2024-01-30T00:13:33;103361.12;;;0.38;76.32
70521;BME280;58442;52.716;23.560;2024-01-30T00:13:44;103355.77;;;0.38;76.30
70521;BME280;58442;52.716;23.560;2024-01-30T00:13:55;103353.10;;;0.38;76.29
70521;BME280;58442;52.716;23.560;2024-01-30T00:14:07;103353.92;;;0.39;76.27
70521;BME280;58442;52.716;23.560;2024-01-30T00:14:18;103364.61;;;0.39;76.27
70521;BME280;58442;52.716;23.560;2024-01-30T00:14:29;103362.76;;;0.39;76.27
70521;BME280;58442;52.716;23.560;2024-01-30T00:14:43;103358.45;;;0.38;76.26
70521;BME280;58442;52.716;23.560;2024-01-30T00:14:54;103354.73;;;0.39;76.26
70521;BME280;58442;52.716;23.560;2024-01-30T00:15:05;103356.59;;;0.39;76.27
70521;BME280;58442;52.716;23.560;2024-01-30T00:15:20;103361.12;;;0.38;76.27
70521;BME280;58442;52.716;23.560;2024-01-30T00:15:31;103360.30;;;0.38;76.27
70521;BME280;58442;52.716;23.560;2024-01-30T00:15:42;103353.10;;;0.38;76.27
70521;BME280;58442;52.716;23.560;2024-01-30T00:15:53;103357.41;;;0.39;76.26
70521;BME280;58442;52.716;23.560;2024-01-30T00:16:05;103354.73;;;0.39;76.27
70521;BME280;58442;52.716;23.560;2024-01-30T00:16:22;103351.23;;;0.39;76.28
70521;BME280;58442;52.716;23.560;2024-01-30T00:16:36;103353.10;;;0.38;76.29
70521;BME280;58442;52.716;23.560;2024-01-30T00:16:47;103353.92;;;0.39;76.28
70521;BME280;58442;52.716;23.560;2024-01-30T00:16:59;103350.20;;;0.40;76.30
70521;BME280;58442;52.716;23.560;2024-01-30T00:17:10;103354.73;;;0.39;76.28
70521;BME280;58442;52.716;23.560;2024-01-30T00:17:21;103355.55;;;0.40;76.30
70521;BME280;58442;52.716;23.560;2024-01-30T00:17:32;103349.39;;;0.39;76.29
70521;BME280;58442;52.716;23.560;2024-01-30T00:17:43;103346.70;;;0.39;76.29
70521;BME280;58442;52.716;23.560;2024-01-30T00:17:54;103348.34;;;0.40;76.30
70521;BME280;58442;52.716;23.560;2024-01-30T00:18:06;103351.02;;;0.40;76.30
70521;BME280;58442;52.716;23.560;2024-01-30T00:18:17;103349.39;;;0.39;76.29
70521;BME280;58442;52.716;23.560;2024-01-30T00:18:30;103351.02;;;0.40;76.29
70521;BME280;58442;52.716;23.560;2024-01-30T00:18:41;103344.85;;;0.40;76.30
70521;BME280;58442;52.716;23.560;2024-01-30T00:18:52;103350.20;;;0.40;76.27
70521;BME280;58442;52.716;23.560;2024-01-30T00:19:04;103347.53;;;0.40;76.29
70521;BME280;58442;52.716;23.560;2024-01-30T00:19:15;103348.34;;;0.40;76.30
70521;BME280;58442;52.716;23.560;2024-01-30T00:19:26;103348.34;;;0.40;76.29
70521;BME280;58442;52.716;23.560;2024-01-30T00:19:37;103353.69;;;0.40;76.29
70521;BME280;58442;52.716;23.560;2024-01-30T00:19:48;103342.99;;;0.40;76.29
70521;BME280;58442;52.716;23.560;2024-01-30T00:19:59;103345.68;;;0.40;76.28
70521;BME280;58442;52.716;23.560;2024-01-30T00:20:10;103348.34;;;0.40;76.29
70521;BME280;58442;52.716;23.560;2024-01-30T00:20:22;103351.02;;;0.40;76.29
70521;BME280;58442;52.716;23.560;2024-01-30T00:20:33;103349.17;;;0.41;76.28
70521;BME280;58442;52.716;23.560;2024-01-30T00:20:44;103350.02;;;0.41;76.28
70521;BME280;58442;52.716;23.560;2024-01-30T00:20:55;103344.66;;;0.41;76.28
70521;BME280;58442;52.716;23.560;2024-01-30T00:21:06;103342.99;;;0.40;76.29
70521;BME280;58442;52.716;23.560;2024-01-30T00:21:18;103343.63;;;0.42;76.28
70521;BME280;58442;52.716;23.560;2024-01-30T00:21:29;103350.02;;;0.41;76.28
70521;BME280;58442;52.716;23.560;2024-01-30T00:21:40;103345.48;;;0.42;76.27
70521;BME280;58442;52.716;23.560;2024-01-30T00:21:52;103346.30;;;0.42;76.28
70521;BME280;58442;52.716;23.560;2024-01-30T00:22:03;103344.66;;;0.41;76.26
70521;BME280;58442;52.716;23.560;2024-01-30T00:22:14;103347.12;;;0.43;76.27
70521;BME280;58442;52.716;23.560;2024-01-30T00:22:25;103347.12;;;0.43;76.26
70521;BME280;58442;52.716;23.560;2024-01-30T00:22:36;103340.95;;;0.42;76.26
70521;BME280;58442;52.716;23.560;2024-01-30T00:22:48;103346.30;;;0.42;76.26
70521;BME280;58442;52.716;23.560;2024-01-30T00:22:59;103346.30;;;0.42;76.26
70521;BME280;58442;52.716;23.560;2024-01-30T00:23:10;103342.80;;;0.42;76.27
70521;BME280;58442;52.716;23.560;2024-01-30T00:23:21;103348.98;;;0.42;76.26
70521;BME280;58442;52.716;23.560;2024-01-30T00:23:32;103344.44;;;0.43;76.26
70521;BME280;58442;52.716;23.560;2024-01-30T00:23:43;103341.77;;;0.43;76.25
70521;BME280;58442;52.716;23.560;2024-01-30T00:23:55;103340.95;;;0.42;76.41
70521;BME280;58442;52.716;23.560;2024-01-30T00:24:06;103340.14;;;0.42;76.26
70521;BME280;58442;52.716;23.560;2024-01-30T00:24:17;103344.44;;;0.43;76.27
70521;BME280;58442;52.716;23.560;2024-01-30T00:24:28;103341.77;;;0.43;76.26
70521;BME280;58442;52.716;23.560;2024-01-30T00:24:39;103339.09;;;0.43;76.27
70521;BME280;58442;52.716;23.560;2024-01-30T00:24:50;103349.78;;;0.43;76.27
70521;BME280;58442;52.716;23.560;2024-01-30T00:25:01;103343.63;;;0.42;76.27
70521;BME280;58442;52.716;23.560;2024-01-30T00:25:13;103340.14;;;0.42;76.28
70521;BME280;58442;52.716;23.560;2024-01-30T00:25:24;103341.77;;;0.43;76.28
70521;BME280;58442;52.716;23.560;2024-01-30T00:25:35;103337.65;;;0.40;76.29
70521;BME280;58442;52.716;23.560;2024-01-30T00:25:46;103340.95;;;0.42;76.28
70521;BME280;58442;52.716;23.560;2024-01-30T00:25:57;103336.41;;;0.43;76.28
70521;BME280;58442;52.716;23.560;2024-01-30T00:26:08;103342.59;;;0.43;76.29
70521;BME280;58442;52.716;23.560;2024-01-30T00:26:19;103343.41;;;0.44;76.29
70521;BME280;58442;52.716;23.560;2024-01-30T00:26:31;103339.09;;;0.43;76.29
70521;BME280;58442;52.716;23.560;2024-01-30T00:26:42;103333.74;;;0.43;76.28
70521;BME280;58442;52.716;23.560;2024-01-30T00:26:53;103339.09;;;0.43;76.28
70521;BME280;58442;52.716;23.560;2024-01-30T00:27:05;103339.91;;;0.43;76.28
70521;BME280;58442;52.716;23.560;2024-01-30T00:27:16;103338.05;;;0.44;76.29
70521;BME280;58442;52.716;23.560;2024-01-30T00:27:27;103341.77;;;0.43;76.29
70521;BME280;58442;52.716;23.560;2024-01-30T00:27:38;103336.41;;;0.43;76.29
70521;BME280;58442;52.716;23.560;2024-01-30T00:27:49;103339.91;;;0.43;76.28
70521;BME280;58442;52.716;23.560;2024-01-30T00:28:00;103343.41;;;0.44;76.28
70521;BME280;58442;52.716;23.560;2024-01-30T00:28:12;103331.07;;;0.43;76.29
70521;BME280;58442;52.716;23.560;2024-01-30T00:28:23;103340.72;;;0.44;76.28
70521;BME280;58442;52.716;23.560;2024-01-30T00:28:34;103335.38;;;0.44;76.28
70521;BME280;58442;52.716;23.560;2024-01-30T00:28:45;103331.88;;;0.43;76.28
70521;BME280;58442;52.716;23.560;2024-01-30T00:28:56;103333.52;;;0.44;76.27
70521;BME280;58442;52.716;23.560;2024-01-30T00:29:07;103336.20;;;0.44;76.27
70521;BME280;58442;52.716;23.560;2024-01-30T00:29:18;103334.34;;;0.45;76.27
70521;BME280;58442;52.716;23.560;2024-01-30T00:29:30;103335.38;;;0.44;76.27
70521;BME280;58442;52.716;23.560;2024-01-30T00:29:44;103335.38;;;0.44;76.27
70521;BME280;58442;52.716;23.560;2024-01-30T00:29:55;103339.69;;;0.45;76.27
70521;BME280;58442;52.716;23.560;2024-01-30T00:30:07;103336.20;;;0.44;76.27
70521;BME280;58442;52.716;23.560;2024-01-30T00:30:20;103338.87;;;0.44;76.28
70521;BME280;58442;52.716;23.560;2024-01-30T00:30:31;103344.21;;;0.44;76.28
70521;BME280;58442;52.716;23.560;2024-01-30T00:30:42;103338.05;;;0.44;76.28
70521;BME280;58442;52.716;23.560;2024-01-30T00:30:53;103332.70;;;0.44;76.28
70521;BME280;58442;52.716;23.560;2024-01-30T00:31:05;103342.36;;;0.45;76.29
70521;BME280;58442;52.716;23.560;2024-01-30T00:31:16;103346.90;;;0.44;76.29
70521;BME280;58442;52.716;23.560;2024-01-30T00:31:27;103338.87;;;0.44;76.28
70521;BME280;58442;52.716;23.560;2024-01-30T00:31:38;103337.83;;;0.45;76.28
70521;BME280;58442;52.716;23.560;2024-01-30T00:31:49;103343.18;;;0.45;76.27
70521;BME280;58442;52.716;23.560;2024-01-30T00:32:00;103343.18;;;0.45;76.27
70521;BME280;58442;52.716;23.560;2024-01-30T00:32:11;103345.05;;;0.45;76.27
70521;BME280;58442;52.716;23.560;2024-01-30T00:32:22;103335.16;;;0.45;76.27
70521;BME280;58442;52.716;23.560;2024-01-30T00:32:34;103340.50;;;0.45;76.27
70521;BME280;58442;52.716;23.560;2024-01-30T00:32:45;103335.98;;;0.46;76.26
70521;BME280;58442;52.716;23.560;2024-01-30T00:32:56;103335.98;;;0.46;76.26
70521;BME280;58442;52.716;23.560;2024-01-30T00:33:08;103342.14;;;0.46;76.27
70521;BME280;58442;52.716;23.560;2024-01-30T00:33:20;103346.68;;;0.46;76.27
70521;BME280;58442;52.716;23.560;2024-01-30T00:33:31;103337.83;;;0.45;76.27
70521;BME280;58442;52.716;23.560;2024-01-30T00:33:42;103338.65;;;0.46;76.26
70521;BME280;58442;52.716;23.560;2024-01-30T00:33:53;103344.81;;;0.46;76.26
70521;BME280;58442;52.716;23.560;2024-01-30T00:34:04;103342.14;;;0.46;76.25
70521;BME280;58442;52.716;23.560;2024-01-30T00:34:15;103342.95;;;0.47;76.25
70521;BME280;58442;52.716;23.560;2024-01-30T00:34:27;103336.79;;;0.46;76.25
70521;BME280;58442;52.716;23.560;2024-01-30T00:34:38;103338.65;;;0.46;76.24
70521;BME280;58442;52.716;23.560;2024-01-30T00:34:49;103343.77;;;0.47;76.24
70521;BME280;58442;52.716;23.560;2024-01-30T00:35:00;103341.10;;;0.47;76.24
70521;BME280;58442;52.716;23.560;2024-01-30T00:35:11;103343.77;;;0.47;76.23
70521;BME280;58442;52.716;23.560;2024-01-30T00:35:22;103343.77;;;0.47;76.23
70521;BME280;58442;52.716;23.560;2024-01-30T00:35:33;103334.94;;;0.47;76.24
70521;BME280;58442;52.716;23.560;2024-01-30T00:35:45;103341.10;;;0.47;76.24
70521;BME280;58442;52.716;23.560;2024-01-30T00:35:56;103338.43;;;0.47;76.22
70521;BME280;58442;52.716;23.560;2024-01-30T00:36:08;103334.94;;;0.47;76.22
70521;BME280;58442;52.716;23.560;2024-01-30T00:36:20;103343.77;;;0.47;76.22
70521;BME280;58442;52.716;23.560;2024-01-30T00:36:31;103338.43;;;0.47;76.21
70521;BME280;58442;52.716;23.560;2024-01-30T00:36:42;103338.43;;;0.47;76.21
70521;BME280;58442;52.716;23.560;2024-01-30T00:36:53;103343.77;;;0.47;76.20
70521;BME280;58442;52.716;23.560;2024-01-30T00:37:04;103343.77;;;0.47;76.20
70521;BME280;58442;52.716;23.560;2024-01-30T00:37:15;103333.07;;;0.47;76.19
70521;BME280;58442;52.716;23.560;2024-01-30T00:37:27;103335.76;;;0.47;76.19
70521;BME280;58442;52.716;23.560;2024-01-30T00:37:38;103337.61;;;0.47;76.19
70521;BME280;58442;52.716;23.560;2024-01-30T00:37:49;103339.24;;;0.48;76.18
70521;BME280;58442;52.716;23.560;2024-01-30T00:38:00;103337.61;;;0.47;76.18
70521;BME280;58442;52.716;23.560;2024-01-30T00:38:12;103338.43;;;0.47;76.18
70521;BME280;58442;52.716;23.560;2024-01-30T00:38:23;103336.79;;;0.46;76.17
70521;BME280;58442;52.716;23.560;2024-01-30T00:38:34;103342.14;;;0.46;76.19
70521;BME280;58442;52.716;23.560;2024-01-30T00:38:45;103342.95;;;0.47;76.19
70521;BME280;58442;52.716;23.560;2024-01-30T00:38:56;103337.61;;;0.47;76.19
70521;BME280;58442;52.716;23.560;2024-01-30T00:39:08;103342.14;;;0.46;76.20
70521;BME280;58442;52.716;23.560;2024-01-30T00:39:20;103337.61;;;0.47;76.21
70521;BME280;58442;52.716;23.560;2024-01-30T00:39:31;103343.99;;;0.46;76.20
70521;BME280;58442;52.716;23.560;2024-01-30T00:39:42;103342.14;;;0.46;76.21
70521;BME280;58442;52.716;23.560;2024-01-30T00:39:54;103339.47;;;0.46;76.22
70521;BME280;58442;52.716;23.560;2024-01-30T00:40:05;103339.47;;;0.46;76.23
70521;BME280;58442;52.716;23.560;2024-01-30T00:40:17;103337.61;;;0.47;76.23
70521;BME280;58442;52.716;23.560;2024-01-30T00:40:28;103336.79;;;0.46;76.23
70521;BME280;58442;52.716;23.560;2024-01-30T00:40:39;103339.47;;;0.46;76.25
70521;BME280;58442;52.716;23.560;2024-01-30T00:40:50;103336.79;;;0.46;76.25
70521;BME280;58442;52.716;23.560;2024-01-30T00:41:01;103335.16;;;0.45;76.25
70521;BME280;58442;52.716;23.560;2024-01-30T00:41:13;103339.47;;;0.46;76.25
70521;BME280;58442;52.716;23.560;2024-01-30T00:41:24;103335.16;;;0.45;76.26
70521;BME280;58442;52.716;23.560;2024-01-30T00:41:35;103336.79;;;0.46;76.25
70521;BME280;58442;52.716;23.560;2024-01-30T00:41:47;103331.43;;;0.46;76.25
70521;BME280;58442;52.716;23.560;2024-01-30T00:41:58;103336.79;;;0.46;76.25
70521;BME280;58442;52.716;23.560;2024-01-30T00:42:09;103336.79;;;0.46;76.26
70521;BME280;58442;52.716;23.560;2024-01-30T00:42:20;103331.43;;;0.46;76.25
70521;BME280;58442;52.716;23.560;2024-01-30T00:42:34;103335.98;;;0.46;76.25
70521;BME280;58442;52.716;23.560;2024-01-30T00:42:45;103337.83;;;0.45;76.24
70521;BME280;58442;52.716;23.560;2024-01-30T00:42:56;103337.83;;;0.45;76.24
70521;BME280;58442;52.716;23.560;2024-01-30T00:43:07;103331.43;;;0.46;76.24
70521;BME280;58442;52.716;23.560;2024-01-30T00:43:18;103329.81;;;0.45;76.24
70521;BME280;58442;52.716;23.560;2024-01-30T00:43:31;103335.16;;;0.45;76.24
70521;BME280;58442;52.716;23.560;2024-01-30T00:43:42;103332.48;;;0.45;76.25
70521;BME280;58442;52.716;23.560;2024-01-30T00:43:54;103335.98;;;0.46;76.25
70521;BME280;58442;52.716;23.560;2024-01-30T00:44:05;103336.79;;;0.46;76.26
70521;BME280;58442;52.716;23.560;2024-01-30T00:44:16;103332.48;;;0.45;76.26
70521;BME280;58442;52.716;23.560;2024-01-30T00:44:27;103335.16;;;0.45;76.26
70521;BME280;58442;52.716;23.560;2024-01-30T00:44:38;103332.48;;;0.45;76.27
70521;BME280;58442;52.716;23.560;2024-01-30T00:44:50;103336.79;;;0.46;76.27
70521;BME280;58442;52.716;23.560;2024-01-30T00:45:01;103331.43;;;0.46;76.27
70521;BME280;58442;52.716;23.560;2024-01-30T00:45:16;103331.43;;;0.46;76.27
70521;BME280;58442;52.716;23.560;2024-01-30T00:45:27;103336.20;;;0.44;76.48
70521;BME280;58442;52.716;23.560;2024-01-30T00:45:38;103333.07;;;0.47;76.28
70521;BME280;58442;52.716;23.560;2024-01-30T00:45:49;103332.25;;;0.47;76.29
70521;BME280;58442;52.716;23.560;2024-01-30T00:46:03;103334.94;;;0.47;76.29
70521;BME280;58442;52.716;23.560;2024-01-30T00:46:14;103336.79;;;0.46;76.27
70521;BME280;58442;52.716;23.560;2024-01-30T00:46:25;103335.76;;;0.47;76.28
70521;BME280;58442;52.716;23.560;2024-01-30T00:46:36;103337.61;;;0.47;76.26
70521;BME280;58442;52.716;23.560;2024-01-30T00:46:47;103331.43;;;0.46;76.26
70521;BME280;58442;52.716;23.560;2024-01-30T00:46:58;103336.79;;;0.46;76.26
70521;BME280;58442;52.716;23.560;2024-01-30T00:47:09;103331.43;;;0.46;76.26
70521;BME280;58442;52.716;23.560;2024-01-30T00:47:20;103333.07;;;0.47;76.27
70521;BME280;58442;52.716;23.560;2024-01-30T00:47:32;103333.07;;;0.47;76.26
70521;BME280;58442;52.716;23.560;2024-01-30T00:47:44;103333.07;;;0.47;76.26
70521;BME280;58442;52.716;23.560;2024-01-30T00:47:55;103333.07;;;0.47;76.24
70521;BME280;58442;52.716;23.560;2024-01-30T00:48:07;103333.07;;;0.47;76.24
70521;BME280;58442;52.716;23.560;2024-01-30T00:48:18;103333.89;;;0.48;76.24
70521;BME280;58442;52.716;23.560;2024-01-30T00:48:29;103333.07;;;0.47;76.24
70521;BME280;58442;52.716;23.560;2024-01-30T00:48:40;103333.07;;;0.47;76.23
70521;BME280;58442;52.716;23.560;2024-01-30T00:48:51;103334.74;;;0.48;76.25
70521;BME280;58442;52.716;23.560;2024-01-30T00:49:02;103331.23;;;0.48;76.23
70521;BME280;58442;52.716;23.560;2024-01-30T00:49:14;103326.71;;;0.48;76.21
70521;BME280;58442;52.716;23.560;2024-01-30T00:49:25;103332.07;;;0.48;76.24
70521;BME280;58442;52.716;23.560;2024-01-30T00:49:36;103334.74;;;0.48;76.21
70521;BME280;58442;52.716;23.560;2024-01-30T00:49:47;103328.54;;;0.48;76.22
70521;BME280;58442;52.716;23.560;2024-01-30T00:49:58;103325.05;;;0.47;76.22
70521;BME280;58442;52.716;23.560;2024-01-30T00:50:10;103332.07;;;0.48;76.21
70521;BME280;58442;52.716;23.560;2024-01-30T00:50:22;103324.85;;;0.49;76.21
70521;BME280;58442;52.716;23.560;2024-01-30T00:50:33;103317.84;;;0.48;76.22
70521;BME280;58442;52.716;23.560;2024-01-30T00:50:44;103329.39;;;0.48;76.20
70521;BME280;58442;52.716;23.560;2024-01-30T00:50:55;103330.21;;;0.49;76.20
70521;BME280;58442;52.716;23.560;2024-01-30T00:51:06;103325.87;;;0.48;76.19
70521;BME280;58442;52.716;23.560;2024-01-30T00:51:17;103325.05;;;0.47;76.13
70521;BME280;58442;52.716;23.560;2024-01-30T00:51:28;103328.54;;;0.48;76.19
70521;BME280;58442;52.716;23.560;2024-01-30T00:51:40;103328.54;;;0.48;76.20
70521;BME280;58442;52.716;23.560;2024-01-30T00:51:51;103323.20;;;0.48;76.19
70521;BME280;58442;52.716;23.560;2024-01-30T00:52:02;103326.71;;;0.48;76.20
70521;BME280;58442;52.716;23.560;2024-01-30T00:52:14;103327.52;;;0.49;76.20
70521;BME280;58442;52.716;23.560;2024-01-30T00:52:25;103326.71;;;0.48;76.21
70521;BME280;58442;52.716;23.560;2024-01-30T00:52:36;103324.85;;;0.49;76.13
70521;BME280;58442;52.716;23.560;2024-01-30T00:52:47;103320.33;;;0.49;76.20
70521;BME280;58442;52.716;23.560;2024-01-30T00:52:58;103324.85;;;0.49;76.21
70521;BME280;58442;52.716;23.560;2024-01-30T00:53:09;103320.52;;;0.48;76.20
70521;BME280;58442;52.716;23.560;2024-01-30T00:53:20;103324.85;;;0.49;76.19
70521;BME280;58442;52.716;23.560;2024-01-30T00:53:31;103317.84;;;0.48;76.20
70521;BME280;58442;52.716;23.560;2024-01-30T00:53:43;103321.36;;;0.48;76.19
70521;BME280;58442;52.716;23.560;2024-01-30T00:53:54;103323.20;;;0.48;76.20
70521;BME280;58442;52.716;23.560;2024-01-30T00:54:05;103319.51;;;0.49;76.19
70521;BME280;58442;52.716;23.560;2024-01-30T00:54:17;103322.18;;;0.49;76.19
70521;BME280;58442;52.716;23.560;2024-01-30T00:54:28;103319.69;;;0.47;76.19
70521;BME280;58442;52.716;23.560;2024-01-30T00:54:40;103317.03;;;0.47;76.20
70521;BME280;58442;52.716;23.560;2024-01-30T00:54:51;103319.69;;;0.47;76.20
70521;BME280;58442;52.716;23.560;2024-01-30T00:55:03;103321.36;;;0.48;76.20
70521;BME280;58442;52.716;23.560;2024-01-30T00:55:14;103320.52;;;0.48;76.21
70521;BME280;58442;52.716;23.560;2024-01-30T00:55:25;103321.36;;;0.48;76.21
70521;BME280;58442;52.716;23.560;2024-01-30T00:55:36;103320.74;;;0.46;76.23
70521;BME280;58442;52.716;23.560;2024-01-30T00:55:48;103319.69;;;0.47;76.23
70521;BME280;58442;52.716;23.560;2024-01-30T00:55:59;103316.20;;;0.47;76.24
70521;BME280;58442;52.716;23.560;2024-01-30T00:56:10;103320.74;;;0.46;76.25
70521;BME280;58442;52.716;23.560;2024-01-30T00:56:21;103320.74;;;0.46;76.25
70521;BME280;58442;52.716;23.560;2024-01-30T00:56:32;103324.23;;;0.47;76.26
70521;BME280;58442;52.716;23.560;2024-01-30T00:56:44;103312.71;;;0.46;76.26
70521;BME280;58442;52.716;23.560;2024-01-30T00:56:55;103321.55;;;0.47;76.26
70521;BME280;58442;52.716;23.560;2024-01-30T00:57:06;103318.06;;;0.46;76.26
70521;BME280;58442;52.716;23.560;2024-01-30T00:57:17;103315.39;;;0.46;76.26
70521;BME280;58442;52.716;23.560;2024-01-30T00:57:29;103318.06;;;0.46;76.26
70521;BME280;58442;52.716;23.560;2024-01-30T00:57:40;103316.20;;;0.47;76.29
70521;BME280;58442;52.716;23.560;2024-01-30T00:57:51;103317.03;;;0.47;76.28
70521;BME280;58442;52.716;23.560;2024-01-30T00:58:02;103317.03;;;0.47;76.27
70521;BME280;58442;52.716;23.560;2024-01-30T00:58:13;103317.25;;;0.46;76.29
70521;BME280;58442;52.716;23.560;2024-01-30T00:58:25;103314.56;;;0.46;76.29
70521;BME280;58442;52.716;23.560;2024-01-30T00:58:36;103311.89;;;0.46;76.30
70521;BME280;58442;52.716;23.560;2024-01-30T00:58:47;103311.07;;;0.45;76.28
70521;BME280;58442;52.716;23.560;2024-01-30T00:58:58;103311.89;;;0.46;76.29
70521;BME280;58442;52.716;23.560;2024-01-30T00:59:10;103316.43;;;0.45;76.28
70521;BME280;58442;52.716;23.560;2024-01-30T00:59:21;103315.61;;;0.45;76.28
70521;BME280;58442;52.716;23.560;2024-01-30T00:59:32;103314.56;;;0.46;76.30
70521;BME280;58442;52.716;23.560;2024-01-30T00:59:44;103308.41;;;0.45;76.29